Time;durP1;ratioP1;P1;durP2;ratioP2;P2;SDS_P1;SDS_P2;PMS_P1;PMS_P2;Temp;Humidity;BMP_temperature;BMP_pressure;BME280_temperature;BME280_humidity;BME280_pressure;Samples;Min_cycle;Max_cycle;Signal;HPM_P1;HPM_P2
2022/04/14 00:00:30;;;;;;;11.25;9.23;;;;;;;;;;2105347;28;20646;-59
2022/04/14 00:01:30;;;;;;;9.23;8.32;;;;;;;;;;2099360;28;20229;-61
2022/04/14 00:02:30;;;;;;;10.70;9.13;;;;;;;;;;2105945;28;20257;-60
2022/04/14 00:03:31;;;;;;;10.07;8.82;;;;;;;;;;2094942;28;20167;-60
2022/04/14 00:04:35;;;;;;;10.40;9.30;;;;;;;;;;2096872;28;20675;-62
2022/04/14 00:05:35;;;;;;;11.00;9.35;;;;;;;;;;2100713;28;20250;-60
2022/04/14 00:06:35;;;;;;;9.27;8.35;;;;;;;;;;2093351;28;20175;-63
2022/04/14 00:07:36;;;;;;;11.45;8.85;;;;;;;;;;2089495;28;20168;-62
2022/04/14 00:08:37;;;;;;;9.95;8.43;;;;;;;;;;2096361;28;20175;-59
2022/04/14 00:09:37;;;;;;;10.07;9.05;;;;;;;;;;2105908;28;20182;-62
2022/04/14 00:10:37;;;;;;;11.10;8.90;;;;;;;;;;2104653;28;20219;-60
2022/04/14 00:11:38;;;;;;;9.48;8.57;;;;;;;;;;2103383;28;22118;-64
2022/04/14 00:12:39;;;;;;;9.95;8.70;;;;;;;;;;2093382;28;20337;-61
2022/04/14 00:13:39;;;;;;;9.38;8.32;;;;;;;;;;2105251;28;20184;-58
2022/04/14 00:14:39;;;;;;;15.30;8.40;;;;;;;;;;2105715;28;20166;-61
2022/04/14 00:15:40;;;;;;;9.23;8.23;;;;;;;;;;2099187;28;20174;-62
2022/04/14 00:16:40;;;;;;;9.80;8.80;;;;;;;;;;2105715;28;20673;-63
2022/04/14 00:17:40;;;;;;;9.63;8.65;;;;;;;;;;2100309;28;20522;-59
2022/04/14 00:18:40;;;;;;;10.15;9.15;;;;;;;;;;2106530;28;20270;-57
2022/04/14 00:19:41;;;;;;;12.93;8.73;;;;;;;;;;2104464;28;20245;-59
2022/04/14 00:20:42;;;;;;;9.45;8.60;;;;;;;;;;2100984;28;20201;-60
2022/04/14 00:21:42;;;;;;;8.98;8.02;;;;;;;;;;2103085;28;20196;-55
2022/04/14 00:22:42;;;;;;;9.48;8.55;;;;;;;;;;2097467;28;20537;-61
2022/04/14 00:23:42;;;;;;;11.25;8.15;;;;;;;;;;2097163;28;20175;-60
2022/04/14 00:24:42;;;;;;;11.60;8.93;;;;;;;;;;2096213;28;20174;-63
2022/04/14 00:25:43;;;;;;;8.18;7.47;;;;;;;;;;2097010;28;20308;-60
2022/04/14 00:26:44;;;;;;;9.52;7.60;;;;;;;;;;2097609;28;20171;-59
2022/04/14 00:27:45;;;;;;;9.60;8.10;;;;;;;;;;2097523;28;20167;-60
2022/04/14 00:28:46;;;;;;;9.00;7.82;;;;;;;;;;2097132;28;20171;-59
2022/04/14 00:29:46;;;;;;;9.50;8.48;;;;;;;;;;2095653;28;20809;-58
2022/04/14 00:30:47;;;;;;;9.07;8.18;;;;;;;;;;2090578;28;20250;-61
2022/04/14 00:31:47;;;;;;;9.32;8.30;;;;;;;;;;2102733;28;20212;-60
2022/04/14 00:32:47;;;;;;;9.20;8.20;;;;;;;;;;2106128;28;20197;-61
2022/04/14 00:33:48;;;;;;;11.38;8.52;;;;;;;;;;2106166;28;20178;-60
2022/04/14 00:34:48;;;;;;;9.23;8.32;;;;;;;;;;2100096;28;20171;-60
2022/04/14 00:35:48;;;;;;;10.63;8.48;;;;;;;;;;2098008;28;20167;-61
2022/04/14 00:36:48;;;;;;;9.95;8.25;;;;;;;;;;2097262;28;20171;-59
2022/04/14 00:37:48;;;;;;;9.00;8.10;;;;;;;;;;2096963;28;20674;-59
2022/04/14 00:38:49;;;;;;;9.73;8.73;;;;;;;;;;2106698;28;20630;-59
2022/04/14 00:39:50;;;;;;;10.20;9.18;;;;;;;;;;2104866;28;20642;-58
2022/04/14 00:40:52;;;;;;;11.38;8.93;;;;;;;;;;2100151;28;20178;-59
2022/04/14 00:41:52;;;;;;;11.35;8.95;;;;;;;;;;2100955;28;20186;-59
2022/04/14 00:42:53;;;;;;;9.90;8.60;;;;;;;;;;2105914;28;20177;-59
2022/04/14 00:43:54;;;;;;;10.70;8.55;;;;;;;;;;2104931;28;20158;-61
2022/04/14 00:44:54;;;;;;;9.35;8.40;;;;;;;;;;2104939;28;20639;-60
2022/04/14 00:45:54;;;;;;;10.23;9.05;;;;;;;;;;2103582;28;20314;-61
2022/04/14 00:46:54;;;;;;;10.30;8.38;;;;;;;;;;2100871;28;20691;-60
2022/04/14 00:47:55;;;;;;;9.57;8.60;;;;;;;;;;2101875;28;20240;-58
2022/04/14 00:48:55;;;;;;;9.80;8.65;;;;;;;;;;2097336;28;20252;-59
2022/04/14 00:49:55;;;;;;;9.35;8.45;;;;;;;;;;2097626;28;20656;-59
2022/04/14 00:50:56;;;;;;;9.70;8.32;;;;;;;;;;2100883;28;20228;-61
2022/04/14 00:51:59;;;;;;;9.57;8.05;;;;;;;;;;2097201;28;20171;-63
2022/04/14 00:52:59;;;;;;;9.25;7.70;;;;;;;;;;2089933;28;20191;-57
2022/04/14 00:53:59;;;;;;;8.80;7.65;;;;;;;;;;2097005;28;20205;-58
2022/04/14 00:55:00;;;;;;;8.93;8.00;;;;;;;;;;2106949;28;20387;-58
2022/04/14 00:56:00;;;;;;;8.25;7.60;;;;;;;;;;2099156;28;20936;-61
2022/04/14 00:57:02;;;;;;;9.43;8.48;;;;;;;;;;2097680;28;20182;-62
2022/04/14 00:58:02;;;;;;;8.77;7.78;;;;;;;;;;2099963;28;20190;-62
2022/04/14 00:59:03;;;;;;;8.90;7.97;;;;;;;;;;2096370;28;20171;-61
2022/04/14 01:00:04;;;;;;;9.75;8.27;;;;;;;;;;2099559;28;20183;-59
2022/04/14 01:01:05;;;;;;;8.38;7.60;;;;;;;;;;2102743;28;20201;-60
2022/04/14 01:02:06;;;;;;;8.80;7.90;;;;;;;;;;2102039;28;20175;-61
2022/04/14 01:03:06;;;;;;;10.60;7.30;;;;;;;;;;2103049;28;20572;-59
2022/04/14 01:04:06;;;;;;;10.43;7.40;;;;;;;;;;2103047;28;20189;-58
2022/04/14 01:05:09;;;;;;;8.60;7.68;;;;;;;;;;2092801;28;20680;-60
2022/04/14 01:06:09;;;;;;;10.00;7.75;;;;;;;;;;2093578;28;20621;-57
2022/04/14 01:07:10;;;;;;;9.05;7.40;;;;;;;;;;2097894;28;20293;-55
2022/04/14 01:08:10;;;;;;;10.48;7.97;;;;;;;;;;2092916;28;20623;-60
2022/04/14 01:09:18;;;;;;;9.50;7.97;;;;;;;;;;2093730;28;20228;-60
2022/04/14 01:10:19;;;;;;;8.10;7.25;;;;;;;;;;2096840;28;20179;-59
2022/04/14 01:11:19;;;;;;;8.05;7.30;;;;;;;;;;2104423;28;20555;-61
2022/04/14 01:12:19;;;;;;;8.55;7.35;;;;;;;;;;2100148;28;20195;-60
2022/04/14 01:13:20;;;;;;;8.20;7.45;;;;;;;;;;2103589;28;20257;-61
2022/04/14 01:14:25;;;;;;;9.10;8.18;;;;;;;;;;2100007;28;20651;-59
2022/04/14 01:15:25;;;;;;;10.50;8.05;;;;;;;;;;2098750;28;20196;-61
2022/04/14 01:16:25;;;;;;;9.30;7.13;;;;;;;;;;2099369;28;20254;-61
2022/04/14 01:17:25;;;;;;;8.52;7.82;;;;;;;;;;2104210;28;20567;-60
2022/04/14 01:18:26;;;;;;;9.35;7.68;;;;;;;;;;2106722;28;20214;-61
2022/04/14 01:19:27;;;;;;;7.82;7.03;;;;;;;;;;2103443;28;20182;-58
2022/04/14 01:20:27;;;;;;;8.95;7.40;;;;;;;;;;2106184;28;20174;-59
2022/04/14 01:21:30;;;;;;;9.93;7.50;;;;;;;;;;2094127;28;20197;-58
2022/04/14 01:22:30;;;;;;;7.63;6.90;;;;;;;;;;2097854;28;20701;-59
2022/04/14 01:23:37;;;;;;;7.85;7.05;;;;;;;;;;2098110;28;20166;-60
2022/04/14 01:24:38;;;;;;;11.73;7.90;;;;;;;;;;2097710;28;20175;-62
2022/04/14 01:25:39;;;;;;;7.30;6.60;;;;;;;;;;2105770;28;20174;-59
2022/04/14 01:26:40;;;;;;;7.78;7.03;;;;;;;;;;2103406;28;20549;-60
2022/04/14 01:27:40;;;;;;;8.00;7.25;;;;;;;;;;2106384;28;20170;-61
2022/04/14 01:28:40;;;;;;;7.97;7.18;;;;;;;;;;2106330;28;20614;-60
2022/04/14 01:29:41;;;;;;;7.75;6.93;;;;;;;;;;2095760;28;20183;-61
2022/04/14 01:30:41;;;;;;;7.90;7.10;;;;;;;;;;2088900;28;20234;-57
2022/04/14 01:31:41;;;;;;;9.07;7.72;;;;;;;;;;2105082;28;20297;-60
2022/04/14 01:32:41;;;;;;;8.45;7.50;;;;;;;;;;2105088;28;20169;-56
2022/04/14 01:33:42;;;;;;;8.30;7.40;;;;;;;;;;2105319;28;20190;-59
2022/04/14 01:34:42;;;;;;;8.20;7.50;;;;;;;;;;2098698;28;20266;-57
2022/04/14 01:35:42;;;;;;;9.00;7.85;;;;;;;;;;2105047;28;20679;-58
2022/04/14 01:36:43;;;;;;;9.48;7.93;;;;;;;;;;2105425;28;20235;-62
2022/04/14 01:37:43;;;;;;;8.43;7.55;;;;;;;;;;2095979;28;20167;-60
2022/04/14 01:38:43;;;;;;;9.52;8.13;;;;;;;;;;2097288;28;20631;-59
2022/04/14 01:39:44;;;;;;;11.40;8.02;;;;;;;;;;2105384;28;20185;-62
2022/04/14 01:40:44;;;;;;;9.38;8.02;;;;;;;;;;2096062;28;20253;-60
2022/04/14 01:41:44;;;;;;;9.10;7.47;;;;;;;;;;2096924;28;20218;-58
2022/04/14 01:42:44;;;;;;;8.73;7.90;;;;;;;;;;2105176;28;20158;-59
2022/04/14 01:43:45;;;;;;;9.25;8.30;;;;;;;;;;2094941;28;20170;-61
2022/04/14 01:44:45;;;;;;;9.32;8.35;;;;;;;;;;2094621;28;20624;-58
2022/04/14 01:45:50;;;;;;;9.43;8.50;;;;;;;;;;2105198;28;20908;-64
2022/04/14 01:46:51;;;;;;;9.27;8.48;;;;;;;;;;2094433;28;20171;-60
2022/04/14 01:47:51;;;;;;;12.38;9.75;;;;;;;;;;2082153;28;20291;-60
2022/04/14 01:48:51;;;;;;;10.30;9.15;;;;;;;;;;2091659;28;20277;-59
2022/04/14 01:49:52;;;;;;;12.02;9.18;;;;;;;;;;2103133;28;20290;-59
2022/04/14 01:50:52;;;;;;;11.23;8.90;;;;;;;;;;2103784;28;20628;-61
2022/04/14 01:51:53;;;;;;;9.77;8.77;;;;;;;;;;2102825;28;20158;-61
2022/04/14 01:52:53;;;;;;;10.70;9.60;;;;;;;;;;2100465;28;20159;-61
2022/04/14 01:53:54;;;;;;;10.25;9.25;;;;;;;;;;2103065;28;20552;-60
2022/04/14 01:54:54;;;;;;;9.88;8.90;;;;;;;;;;2102521;28;20626;-61
2022/04/14 01:55:54;;;;;;;10.93;9.75;;;;;;;;;;2102929;28;20250;-61
2022/04/14 01:56:54;;;;;;;10.48;9.43;;;;;;;;;;2100733;28;20162;-60
2022/04/14 01:57:55;;;;;;;10.98;9.88;;;;;;;;;;2097151;28;20243;-63
2022/04/14 01:58:55;;;;;;;9.98;8.98;;;;;;;;;;2096302;28;20186;-60
2022/04/14 01:59:59;;;;;;;11.63;9.13;;;;;;;;;;2102930;28;20186;-60
2022/04/14 02:00:59;;;;;;;11.00;9.68;;;;;;;;;;2099890;28;20182;-54
2022/04/14 02:01:59;;;;;;;12.63;9.95;;;;;;;;;;2097292;28;20249;-61
2022/04/14 02:03:00;;;;;;;11.05;9.52;;;;;;;;;;2094918;28;20175;-61
2022/04/14 02:04:02;;;;;;;11.48;10.40;;;;;;;;;;2105814;28;20237;-58
2022/04/14 02:05:02;;;;;;;12.05;10.32;;;;;;;;;;2103713;28;20174;-60
2022/04/14 02:06:03;;;;;;;13.55;10.52;;;;;;;;;;2106331;28;20566;-61
2022/04/14 02:07:05;;;;;;;12.63;11.23;;;;;;;;;;2106134;28;20598;-56
2022/04/14 02:08:05;;;;;;;11.77;10.57;;;;;;;;;;2104338;28;20639;-62
2022/04/14 02:09:05;;;;;;;13.13;10.27;;;;;;;;;;2106005;28;20158;-61
2022/04/14 02:10:06;;;;;;;11.45;9.70;;;;;;;;;;2101012;28;20175;-61
2022/04/14 02:11:10;;;;;;;12.70;11.38;;;;;;;;;;2098384;28;20175;-61
2022/04/14 02:12:13;;;;;;;12.73;11.35;;;;;;;;;;2102715;28;20166;-57
2022/04/14 02:13:13;;;;;;;11.57;10.27;;;;;;;;;;2100006;28;20171;-62
2022/04/14 02:14:13;;;;;;;16.25;11.50;;;;;;;;;;2092867;28;20167;-60
2022/04/14 02:15:14;;;;;;;15.70;10.82;;;;;;;;;;2096370;28;20197;-60
2022/04/14 02:16:14;;;;;;;14.43;11.02;;;;;;;;;;2097286;28;20179;-61
2022/04/14 02:17:14;;;;;;;13.60;11.02;;;;;;;;;;2104096;28;20189;-59
2022/04/14 02:18:14;;;;;;;13.10;10.65;;;;;;;;;;2100301;28;20175;-56
2022/04/14 02:19:15;;;;;;;14.48;11.00;;;;;;;;;;2103006;28;20635;-59
2022/04/14 02:20:15;;;;;;;16.40;10.85;;;;;;;;;;2104778;28;20186;-58
2022/04/14 02:21:15;;;;;;;14.50;11.63;;;;;;;;;;2090694;28;20222;-58
2022/04/14 02:22:16;;;;;;;15.52;11.63;;;;;;;;;;2094004;28;20639;-57
2022/04/14 02:23:16;;;;;;;13.23;10.15;;;;;;;;;;2105626;28;20201;-59
2022/04/14 02:24:16;;;;;;;15.00;10.77;;;;;;;;;;2101324;28;20178;-57
2022/04/14 02:25:16;;;;;;;11.57;10.20;;;;;;;;;;2096915;28;20182;-56
2022/04/14 02:26:17;;;;;;;17.85;12.38;;;;;;;;;;2088224;28;20198;-58
2022/04/14 02:27:17;;;;;;;14.02;11.55;;;;;;;;;;2096463;28;20179;-58
2022/04/14 02:28:17;;;;;;;14.32;10.75;;;;;;;;;;2105293;28;20749;-60
2022/04/14 02:29:18;;;;;;;15.43;10.70;;;;;;;;;;2102545;28;20197;-61
2022/04/14 02:30:18;;;;;;;13.02;11.43;;;;;;;;;;2098918;28;20561;-60
2022/04/14 02:31:18;;;;;;;17.13;11.38;;;;;;;;;;2102889;28;20293;-60
2022/04/14 02:32:18;;;;;;;14.77;11.45;;;;;;;;;;2099254;28;20166;-60
2022/04/14 02:33:19;;;;;;;20.70;12.00;;;;;;;;;;2106251;28;20193;-62
2022/04/14 02:34:19;;;;;;;13.70;11.88;;;;;;;;;;2099280;28;20171;-57
2022/04/14 02:35:19;;;;;;;16.75;11.57;;;;;;;;;;2107198;28;20174;-61
2022/04/14 02:36:19;;;;;;;16.63;11.80;;;;;;;;;;2100942;28;20175;-59
2022/04/14 02:37:20;;;;;;;14.52;11.90;;;;;;;;;;2093309;28;20257;-60
2022/04/14 02:38:20;;;;;;;15.85;12.43;;;;;;;;;;2097768;28;20686;-56
2022/04/14 02:39:20;;;;;;;14.93;11.50;;;;;;;;;;2098801;28;20179;-60
2022/04/14 02:40:22;;;;;;;12.95;10.80;;;;;;;;;;2104707;28;20771;-61
2022/04/14 02:41:22;;;;;;;15.82;11.20;;;;;;;;;;2105120;28;20743;-58
2022/04/14 02:42:23;;;;;;;18.00;12.38;;;;;;;;;;2101400;28;20223;-58
2022/04/14 02:43:23;;;;;;;13.98;11.70;;;;;;;;;;2104700;28;20166;-59
2022/04/14 02:44:23;;;;;;;16.65;12.30;;;;;;;;;;2093234;28;20182;-57
2022/04/14 02:45:24;;;;;;;15.35;13.10;;;;;;;;;;2096037;28;20178;-59
2022/04/14 02:46:24;;;;;;;17.95;13.35;;;;;;;;;;2099685;28;20230;-62
2022/04/14 02:47:25;;;;;;;18.83;13.07;;;;;;;;;;2105187;28;20210;-59
2022/04/14 02:48:26;;;;;;;19.25;13.48;;;;;;;;;;2103231;28;20211;-61
2022/04/14 02:49:26;;;;;;;15.18;12.60;;;;;;;;;;2104321;28;20228;-59
2022/04/14 02:50:26;;;;;;;17.75;13.18;;;;;;;;;;2103487;28;20213;-58
2022/04/14 02:51:27;;;;;;;16.77;13.02;;;;;;;;;;2098176;28;20194;-62
2022/04/14 02:52:27;;;;;;;16.73;13.57;;;;;;;;;;2097575;28;20262;-62
2022/04/14 02:53:27;;;;;;;16.40;12.70;;;;;;;;;;2097572;28;20239;-62
2022/04/14 02:54:27;;;;;;;20.80;14.05;;;;;;;;;;2097508;28;20253;-63
2022/04/14 02:55:28;;;;;;;16.48;13.30;;;;;;;;;;2106411;28;20170;-61
2022/04/14 02:56:28;;;;;;;19.27;14.10;;;;;;;;;;2106136;28;20714;-58
2022/04/14 02:57:30;;;;;;;19.48;13.65;;;;;;;;;;2106211;28;20646;-59
2022/04/14 02:58:30;;;;;;;18.40;14.70;;;;;;;;;;2105869;28;20166;-58
2022/04/14 02:59:31;;;;;;;20.77;13.90;;;;;;;;;;2105535;28;20182;-59
2022/04/14 03:00:31;;;;;;;20.80;14.55;;;;;;;;;;2105995;28;20166;-60
2022/04/14 03:01:31;;;;;;;19.75;14.50;;;;;;;;;;2105773;28;20186;-59
2022/04/14 03:02:31;;;;;;;18.98;13.93;;;;;;;;;;2106216;28;20182;-59
2022/04/14 03:03:32;;;;;;;16.55;14.38;;;;;;;;;;2106069;28;20249;-60
2022/04/14 03:04:32;;;;;;;19.25;14.77;;;;;;;;;;2108139;28;20289;-61
2022/04/14 03:05:32;;;;;;;17.35;14.45;;;;;;;;;;2114529;28;20269;-61
2022/04/14 03:06:32;;;;;;;19.20;15.02;;;;;;;;;;2106121;28;20197;-61
2022/04/14 03:07:33;;;;;;;20.38;14.30;;;;;;;;;;2106020;28;20205;-61
2022/04/14 03:08:33;;;;;;;20.77;15.07;;;;;;;;;;2105781;28;20252;-59
2022/04/14 03:09:33;;;;;;;23.27;15.68;;;;;;;;;;2105708;28;20178;-60
2022/04/14 03:10:34;;;;;;;17.08;14.52;;;;;;;;;;2092909;28;20228;-63
2022/04/14 03:11:34;;;;;;;20.25;15.20;;;;;;;;;;2096148;28;20884;-60
2022/04/14 03:12:46;;;;;;;17.90;14.32;;;;;;;;;;2103417;28;20241;-60
2022/04/14 03:13:46;;;;;;;19.15;15.30;;;;;;;;;;2098056;28;20197;-62
2022/04/14 03:14:47;;;;;;;19.13;15.00;;;;;;;;;;2098874;28;20272;-59
2022/04/14 03:15:49;;;;;;;21.30;15.00;;;;;;;;;;2094775;28;20721;-59
2022/04/14 03:16:49;;;;;;;21.27;15.60;;;;;;;;;;2094458;28;20182;-62
2022/04/14 03:17:50;;;;;;;21.10;15.45;;;;;;;;;;2096356;28;20194;-58
2022/04/14 03:18:50;;;;;;;21.73;15.90;;;;;;;;;;2099177;28;20183;-56
2022/04/14 03:19:50;;;;;;;23.10;15.02;;;;;;;;;;2104387;28;20269;-59
2022/04/14 03:20:50;;;;;;;22.27;16.40;;;;;;;;;;2105008;28;20216;-61
2022/04/14 03:21:51;;;;;;;23.45;17.23;;;;;;;;;;2102409;28;20303;-60
2022/04/14 03:22:51;;;;;;;23.27;16.48;;;;;;;;;;2096807;28;20693;-63
2022/04/14 03:23:51;;;;;;;23.17;16.35;;;;;;;;;;2098655;28;20303;-55
2022/04/14 03:24:54;;;;;;;22.45;16.52;;;;;;;;;;2097958;28;20159;-61
2022/04/14 03:25:55;;;;;;;27.98;16.85;;;;;;;;;;2090762;28;20304;-60
2022/04/14 03:26:55;;;;;;;21.10;16.02;;;;;;;;;;2090517;28;20182;-58
2022/04/14 03:27:55;;;;;;;25.98;18.05;;;;;;;;;;2099701;28;20256;-60
2022/04/14 03:28:55;;;;;;;22.80;16.70;;;;;;;;;;2099810;28;20257;-63
2022/04/14 03:29:56;;;;;;;23.00;18.02;;;;;;;;;;2102465;28;20186;-60
2022/04/14 03:30:56;;;;;;;23.05;16.23;;;;;;;;;;2102519;28;20167;-61
2022/04/14 03:31:56;;;;;;;23.65;17.30;;;;;;;;;;2090863;28;20163;-64
2022/04/14 03:32:57;;;;;;;32.47;20.00;;;;;;;;;;2096464;28;20167;-61
2022/04/14 03:33:57;;;;;;;25.48;17.05;;;;;;;;;;2101709;28;20715;-61
2022/04/14 03:35:02;;;;;;;26.58;18.70;;;;;;;;;;2099768;28;20182;-61
2022/04/14 03:36:02;;;;;;;24.08;18.08;;;;;;;;;;2105249;28;20212;-63
2022/04/14 03:37:03;;;;;;;23.25;16.35;;;;;;;;;;2099700;28;20175;-61
2022/04/14 03:38:03;;;;;;;25.77;18.70;;;;;;;;;;2098632;28;20186;-59
2022/04/14 03:39:04;;;;;;;23.95;17.55;;;;;;;;;;2103465;28;20175;-59
2022/04/14 03:40:05;;;;;;;25.35;18.27;;;;;;;;;;2105305;28;20182;-60
2022/04/14 03:41:06;;;;;;;24.83;18.85;;;;;;;;;;2105425;28;20654;-59
2022/04/14 03:42:06;;;;;;;27.42;18.98;;;;;;;;;;2092923;28;20170;-59
2022/04/14 03:43:06;;;;;;;28.85;18.92;;;;;;;;;;2092954;28;20176;-62
2022/04/14 03:44:07;;;;;;;27.60;19.23;;;;;;;;;;2100056;28;20728;-64
2022/04/14 03:45:07;;;;;;;25.65;19.08;;;;;;;;;;2101622;28;20253;-59
2022/04/14 03:46:08;;;;;;;29.00;19.58;;;;;;;;;;2094636;28;20222;-60
2022/04/14 03:47:08;;;;;;;29.65;20.02;;;;;;;;;;2093374;28;20172;-57
2022/04/14 03:48:09;;;;;;;29.55;20.35;;;;;;;;;;2096744;28;20179;-58
2022/04/14 03:49:10;;;;;;;28.55;19.73;;;;;;;;;;2098280;28;20171;-58
2022/04/14 03:50:11;;;;;;;30.98;20.00;;;;;;;;;;2090988;28;20604;-60
2022/04/14 03:51:14;;;;;;;30.20;19.95;;;;;;;;;;2092011;28;20188;-59
2022/04/14 03:52:14;;;;;;;26.23;19.17;;;;;;;;;;2088120;28;20176;-56
2022/04/14 03:53:16;;;;;;;24.67;18.20;;;;;;;;;;2087717;28;20175;-56
2022/04/14 03:54:16;;;;;;;29.52;18.98;;;;;;;;;;2102693;28;20209;-59
2022/04/14 03:55:16;;;;;;;31.45;19.92;;;;;;;;;;2101478;28;20563;-56
2022/04/14 03:56:16;;;;;;;29.70;19.77;;;;;;;;;;2095588;28;20210;-62
2022/04/14 03:57:17;;;;;;;29.17;19.88;;;;;;;;;;2097124;28;20198;-58
2022/04/14 03:58:17;;;;;;;32.22;21.40;;;;;;;;;;2103883;28;20230;-59
2022/04/14 03:59:18;;;;;;;31.05;20.92;;;;;;;;;;2106471;28;20186;-59
2022/04/14 04:00:18;;;;;;;33.03;20.67;;;;;;;;;;2091983;28;20184;-61
2022/04/14 04:01:18;;;;;;;32.15;20.30;;;;;;;;;;2095915;28;20210;-58
2022/04/14 04:02:18;;;;;;;31.77;20.27;;;;;;;;;;2091839;28;20639;-59
2022/04/14 04:03:19;;;;;;;34.58;21.45;;;;;;;;;;2095361;28;20179;-60
2022/04/14 04:04:19;;;;;;;30.13;21.73;;;;;;;;;;2104942;28;20197;-62
2022/04/14 04:05:19;;;;;;;33.00;21.58;;;;;;;;;;2099206;28;20284;-58
2022/04/14 04:06:19;;;;;;;32.58;22.25;;;;;;;;;;2102571;28;20242;-59
2022/04/14 04:07:19;;;;;;;31.02;20.98;;;;;;;;;;2102514;28;20175;-61
2022/04/14 04:08:20;;;;;;;34.45;22.33;;;;;;;;;;2102409;28;20181;-60
2022/04/14 04:09:20;;;;;;;32.00;21.45;;;;;;;;;;2104616;28;20648;-62
2022/04/14 04:10:21;;;;;;;28.75;19.92;;;;;;;;;;2098099;28;20336;-63
2022/04/14 04:11:21;;;;;;;29.58;20.23;;;;;;;;;;2089871;28;20200;-61
2022/04/14 04:12:21;;;;;;;28.15;21.10;;;;;;;;;;2094411;28;20174;-61
2022/04/14 04:13:22;;;;;;;28.38;20.35;;;;;;;;;;2088096;28;20536;-62
2022/04/14 04:14:22;;;;;;;28.63;21.02;;;;;;;;;;2096513;28;20198;-61
2022/04/14 04:15:22;;;;;;;30.05;20.17;;;;;;;;;;2096927;28;20182;-62
2022/04/14 04:16:23;;;;;;;31.52;21.50;;;;;;;;;;2097704;28;20273;-61
2022/04/14 04:17:23;;;;;;;31.95;21.55;;;;;;;;;;2107303;28;20184;-60
2022/04/14 04:18:23;;;;;;;31.42;20.15;;;;;;;;;;2100607;28;20576;-60
2022/04/14 04:19:23;;;;;;;28.77;20.38;;;;;;;;;;2105799;28;20614;-59
2022/04/14 04:20:25;;;;;;;28.98;20.15;;;;;;;;;;2102832;28;20573;-61
2022/04/14 04:21:29;;;;;;;30.13;20.88;;;;;;;;;;2105379;28;20276;-62
2022/04/14 04:22:29;;;;;;;28.67;21.52;;;;;;;;;;2097814;28;20179;-60
2022/04/14 04:23:30;;;;;;;31.05;21.02;;;;;;;;;;2098365;28;20171;-60
2022/04/14 04:24:30;;;;;;;38.28;21.95;;;;;;;;;;2103941;28;20194;-59
2022/04/14 04:25:30;;;;;;;31.98;20.58;;;;;;;;;;2107023;28;20201;-59
2022/04/14 04:26:31;;;;;;;29.30;20.08;;;;;;;;;;2105947;28;20209;-56
2022/04/14 04:27:31;;;;;;;32.45;21.17;;;;;;;;;;2107285;28;20343;-62
2022/04/14 04:28:31;;;;;;;32.05;21.73;;;;;;;;;;2099181;28;20257;-59
2022/04/14 04:29:32;;;;;;;32.25;22.10;;;;;;;;;;2106927;28;20540;-60
2022/04/14 04:30:33;;;;;;;30.27;21.95;;;;;;;;;;2096615;28;20615;-58
2022/04/14 04:31:33;;;;;;;31.27;20.67;;;;;;;;;;2105236;23;20246;-55
2022/04/14 04:32:34;;;;;;;33.65;21.83;;;;;;;;;;2092017;28;20168;-58
2022/04/14 04:33:34;;;;;;;33.72;23.00;;;;;;;;;;2098363;28;20170;-59
2022/04/14 04:34:34;;;;;;;35.30;22.83;;;;;;;;;;2093903;28;20182;-58
2022/04/14 04:35:35;;;;;;;34.03;23.58;;;;;;;;;;2093158;28;20175;-58
2022/04/14 04:36:35;;;;;;;38.72;24.38;;;;;;;;;;2107912;28;20185;-58
2022/04/14 04:37:35;;;;;;;35.30;24.08;;;;;;;;;;2100007;28;20174;-61
2022/04/14 04:38:35;;;;;;;37.28;24.65;;;;;;;;;;2100365;28;20171;-58
2022/04/14 04:39:36;;;;;;;37.17;24.23;;;;;;;;;;2093407;28;20234;-58
2022/04/14 04:40:36;;;;;;;40.88;26.45;;;;;;;;;;2105264;28;20657;-59
2022/04/14 04:41:37;;;;;;;38.55;24.83;;;;;;;;;;2098951;28;20212;-58
2022/04/14 04:42:37;;;;;;;36.88;24.80;;;;;;;;;;2083862;28;20180;-58
2022/04/14 04:43:37;;;;;;;36.40;25.40;;;;;;;;;;2088233;28;20180;-57
2022/04/14 04:44:38;;;;;;;38.28;24.67;;;;;;;;;;2096708;28;20175;-57
2022/04/14 04:45:39;;;;;;;37.67;24.98;;;;;;;;;;2096355;28;20254;-59
2022/04/14 04:46:39;;;;;;;39.40;25.38;;;;;;;;;;2094283;28;20206;-58
2022/04/14 04:47:39;;;;;;;36.95;25.73;;;;;;;;;;2095857;28;20163;-59
2022/04/14 04:48:40;;;;;;;37.13;24.48;;;;;;;;;;2096159;28;20262;-61
2022/04/14 04:49:40;;;;;;;37.60;24.75;;;;;;;;;;2097822;28;20167;-58
2022/04/14 04:50:40;;;;;;;40.75;24.83;;;;;;;;;;2089493;28;20653;-59
2022/04/14 04:51:40;;;;;;;35.47;25.83;;;;;;;;;;2085384;28;20190;-57
2022/04/14 04:52:40;;;;;;;36.97;23.60;;;;;;;;;;2090992;28;20167;-56
2022/04/14 04:53:41;;;;;;;38.55;24.65;;;;;;;;;;2094818;28;20184;-59
2022/04/14 04:54:41;;;;;;;36.65;25.42;;;;;;;;;;2098114;28;20186;-57
2022/04/14 04:55:41;;;;;;;35.92;25.48;;;;;;;;;;2094135;28;20258;-58
2022/04/14 04:56:42;;;;;;;37.30;25.05;;;;;;;;;;2097894;28;20167;-59
2022/04/14 04:57:42;;;;;;;40.35;25.88;;;;;;;;;;2092530;28;20527;-58
2022/04/14 04:58:42;;;;;;;41.58;26.20;;;;;;;;;;2082346;28;20263;-59
2022/04/14 04:59:42;;;;;;;41.55;27.25;;;;;;;;;;2089909;28;20687;-60
2022/04/14 05:00:44;;;;;;;43.70;27.02;;;;;;;;;;2088443;28;20624;-60
2022/04/14 05:01:44;;;;;;;43.33;27.90;;;;;;;;;;2088091;28;20222;-57
2022/04/14 05:02:45;;;;;;;39.83;26.98;;;;;;;;;;2088426;28;20280;-58
2022/04/14 05:03:45;;;;;;;44.97;27.88;;;;;;;;;;2088076;28;20184;-58
2022/04/14 05:04:45;;;;;;;41.40;27.00;;;;;;;;;;2092601;28;20171;-60
2022/04/14 05:05:45;;;;;;;43.35;28.00;;;;;;;;;;2087319;28;20667;-58
2022/04/14 05:06:46;;;;;;;47.50;29.80;;;;;;;;;;2087796;28;20172;-59
2022/04/14 05:07:46;;;;;;;49.28;29.40;;;;;;;;;;2095185;28;20171;-58
2022/04/14 05:08:49;;;;;;;45.67;28.67;;;;;;;;;;2091055;28;20168;-59
2022/04/14 05:09:49;;;;;;;46.00;27.77;;;;;;;;;;2095856;28;20167;-59
2022/04/14 05:10:49;;;;;;;45.30;30.05;;;;;;;;;;2091911;28;20589;-60
2022/04/14 05:11:50;;;;;;;44.17;28.65;;;;;;;;;;2083271;28;20343;-60
2022/04/14 05:12:50;;;;;;;42.60;28.38;;;;;;;;;;2088715;28;20251;-58
2022/04/14 05:13:50;;;;;;;50.95;29.00;;;;;;;;;;2098161;28;20185;-57
2022/04/14 05:14:51;;;;;;;44.10;28.27;;;;;;;;;;2095946;28;20190;-58
2022/04/14 05:15:51;;;;;;;45.92;28.00;;;;;;;;;;2092151;28;20164;-60
2022/04/14 05:16:51;;;;;;;42.92;28.17;;;;;;;;;;2097808;28;20637;-60
2022/04/14 05:17:51;;;;;;;47.80;29.00;;;;;;;;;;2098726;28;20261;-59
2022/04/14 05:18:52;;;;;;;47.10;30.17;;;;;;;;;;2098491;28;20171;-58
2022/04/14 05:19:52;;;;;;;46.17;28.33;;;;;;;;;;2095437;28;20221;-63
2022/04/14 05:20:52;;;;;;;47.20;29.45;;;;;;;;;;2091936;28;20175;-59
2022/04/14 05:21:52;;;;;;;45.75;29.20;;;;;;;;;;2097421;28;20214;-58
2022/04/14 05:22:53;;;;;;;46.50;29.33;;;;;;;;;;2098378;28;20187;-58
2022/04/14 05:23:53;;;;;;;47.38;29.52;;;;;;;;;;2092436;28;20179;-58
2022/04/14 05:24:53;;;;;;;50.47;30.63;;;;;;;;;;2095450;28;20229;-62
2022/04/14 05:25:57;;;;;;;43.25;29.85;;;;;;;;;;2090616;28;20181;-59
2022/04/14 05:26:57;;;;;;;48.03;30.80;;;;;;;;;;2092480;28;20250;-60
2022/04/14 05:27:58;;;;;;;52.88;33.50;;;;;;;;;;2098226;28;20178;-59
2022/04/14 05:28:58;;;;;;;55.30;32.33;;;;;;;;;;2097785;28;20175;-57
2022/04/14 05:29:58;;;;;;;59.95;35.30;;;;;;;;;;2098221;28;20175;-59
2022/04/14 05:30:59;;;;;;;61.20;36.67;;;;;;;;;;2097183;28;20174;-63
2022/04/14 05:32:00;;;;;;;61.80;36.55;;;;;;;;;;2093580;28;20260;-59
2022/04/14 05:33:00;;;;;;;58.80;35.80;;;;;;;;;;2098179;28;20233;-59
2022/04/14 05:34:00;;;;;;;61.28;36.45;;;;;;;;;;2094549;28;20185;-58
2022/04/14 05:35:00;;;;;;;61.60;37.22;;;;;;;;;;2092737;28;20206;-60
2022/04/14 05:36:01;;;;;;;64.22;37.28;;;;;;;;;;2098262;28;20179;-58
2022/04/14 05:37:01;;;;;;;63.72;38.90;;;;;;;;;;2088462;28;20656;-57
2022/04/14 05:38:01;;;;;;;63.38;35.53;;;;;;;;;;2087050;28;20183;-59
2022/04/14 05:39:01;;;;;;;60.70;36.50;;;;;;;;;;2094592;28;20182;-58
2022/04/14 05:40:05;;;;;;;63.25;37.97;;;;;;;;;;2100136;28;20190;-58
2022/04/14 05:41:05;;;;;;;64.63;39.28;;;;;;;;;;2086104;28;20249;-56
2022/04/14 05:42:06;;;;;;;59.35;38.40;;;;;;;;;;2086828;28;20229;-57
2022/04/14 05:43:06;;;;;;;64.07;37.80;;;;;;;;;;2096442;28;20171;-62
2022/04/14 05:44:07;;;;;;;61.38;38.38;;;;;;;;;;2094438;28;20198;-59
2022/04/14 05:45:07;;;;;;;62.42;39.40;;;;;;;;;;2095814;28;20605;-58
2022/04/14 05:46:07;;;;;;;70.22;38.88;;;;;;;;;;2098015;28;20190;-58
2022/04/14 05:47:08;;;;;;;64.07;37.70;;;;;;;;;;2095191;28;20239;-56
2022/04/14 05:48:08;;;;;;;63.15;40.22;;;;;;;;;;2097749;28;20216;-57
2022/04/14 05:49:08;;;;;;;60.63;38.58;;;;;;;;;;2097815;28;20261;-54
2022/04/14 05:50:09;;;;;;;66.70;41.50;;;;;;;;;;2098367;28;20193;-55
2022/04/14 05:51:09;;;;;;;62.65;39.55;;;;;;;;;;2096995;28;20171;-55
2022/04/14 05:52:09;;;;;;;61.78;39.00;;;;;;;;;;2097914;28;20202;-60
2022/04/14 05:53:10;;;;;;;63.20;40.45;;;;;;;;;;2095631;28;20166;-57
2022/04/14 05:54:10;;;;;;;64.20;39.70;;;;;;;;;;2097705;28;20178;-56
2022/04/14 05:55:10;;;;;;;63.97;40.35;;;;;;;;;;2097545;28;20191;-59